createdAt,value
2022-11-14T00:01:08.942Z,-0.13
2022-11-14T00:03:56.062Z,-0.09
2022-11-14T00:06:43.198Z,-0.15
2022-11-14T00:09:31.592Z,-0.10
2022-11-14T00:12:18.636Z,-0.16
2022-11-14T00:15:06.336Z,-0.07
2022-11-14T00:17:53.402Z,-0.04
2022-11-14T00:20:40.339Z,-0.15
2022-11-14T00:23:27.657Z,-0.18
2022-11-14T00:26:15.943Z,-0.18
2022-11-14T00:29:02.845Z,-0.14
2022-11-14T00:31:50.026Z,-0.27
2022-11-14T00:34:36.930Z,-0.24
2022-11-14T00:37:23.929Z,-0.26
2022-11-14T00:40:11.065Z,-0.24
2022-11-14T00:42:59.000Z,-0.28
2022-11-14T00:45:46.097Z,-0.23
2022-11-14T00:48:33.006Z,-0.42
2022-11-14T00:51:19.927Z,-0.30
2022-11-14T00:54:07.039Z,-0.34
2022-11-14T00:56:54.070Z,-0.36
2022-11-14T00:59:42.145Z,-0.41
2022-11-14T01:02:29.171Z,-0.45
2022-11-14T01:05:16.361Z,-0.51
2022-11-14T01:08:03.914Z,-0.49
2022-11-14T01:10:52.198Z,-0.57
2022-11-14T01:13:39.997Z,-0.61
2022-11-14T01:16:28.443Z,-0.68
2022-11-14T01:19:15.207Z,-0.71
2022-11-14T01:22:06.101Z,-0.80
2022-11-14T01:24:53.242Z,-0.63
2022-11-14T01:27:41.373Z,-0.64
2022-11-14T01:30:28.209Z,-0.66
2022-11-14T01:33:16.644Z,-0.75
2022-11-14T01:36:03.567Z,-0.71
2022-11-14T01:38:54.436Z,-0.68
2022-11-14T01:41:41.244Z,-0.64
2022-11-14T01:44:45.706Z,-0.70
2022-11-14T01:47:34.149Z,-0.76
2022-11-14T01:50:22.704Z,-0.70
2022-11-14T01:53:09.454Z,-0.80
2022-11-14T01:55:58.663Z,-0.92
2022-11-14T01:58:47.374Z,-0.78
2022-11-14T02:01:37.907Z,-0.94
2022-11-14T02:04:27.318Z,-0.96
2022-11-14T02:07:16.421Z,-1.13
2022-11-14T02:10:06.892Z,-0.99
2022-11-14T02:12:54.541Z,-0.99
2022-11-14T02:15:42.220Z,-0.98
2022-11-14T02:18:29.297Z,-1.07
2022-11-14T02:21:18.004Z,-1.09
2022-11-14T02:24:09.117Z,-1.15
2022-11-14T02:26:56.027Z,-1.08
2022-11-14T02:29:43.071Z,-1.04
2022-11-14T02:32:45.087Z,-1.09
2022-11-14T02:35:38.473Z,-1.08
2022-11-14T02:38:26.439Z,-1.05
2022-11-14T02:41:13.456Z,-1.08
2022-11-14T02:44:00.025Z,-1.10
2022-11-14T02:46:46.963Z,-1.06
2022-11-14T02:49:33.856Z,-1.04
2022-11-14T02:52:20.618Z,-1.09
2022-11-14T02:55:09.820Z,-1.13
2022-11-14T02:57:56.501Z,-1.09
2022-11-14T03:01:06.028Z,-1.17
2022-11-14T03:03:50.488Z,-1.10
2022-11-14T03:06:37.074Z,-1.21
2022-11-14T03:09:24.205Z,-1.19
2022-11-14T03:12:12.486Z,-1.12
2022-11-14T03:14:59.645Z,-1.15
2022-11-14T03:17:46.406Z,-1.10
2022-11-14T03:20:33.388Z,-1.14
2022-11-14T03:23:20.479Z,-1.09
2022-11-14T03:26:09.671Z,-1.37
2022-11-14T03:28:57.776Z,-1.10
2022-11-14T03:31:44.318Z,-1.17
2022-11-14T03:34:31.416Z,-1.11
2022-11-14T03:37:18.494Z,-1.23
2022-11-14T03:40:06.643Z,-1.20
2022-11-14T03:42:53.483Z,-1.18
2022-11-14T03:45:41.848Z,-1.19
2022-11-14T03:48:28.877Z,-1.14
2022-11-14T03:51:15.755Z,-1.11
2022-11-14T03:54:02.996Z,-1.12
2022-11-14T03:56:49.523Z,-1.07
2022-11-14T03:59:36.768Z,-1.16
2022-11-14T04:02:25.029Z,-1.07
2022-11-14T04:05:11.877Z,-1.16
2022-11-14T04:07:58.417Z,-1.22
2022-11-14T04:10:48.356Z,-1.21
2022-11-14T04:13:35.131Z,-1.19
2022-11-14T04:16:21.866Z,-1.18
2022-11-14T04:19:10.458Z,-1.23
2022-11-14T04:21:57.053Z,-1.22
2022-11-14T04:24:43.653Z,-1.21
2022-11-14T04:27:31.754Z,-1.39
2022-11-14T04:30:18.546Z,-1.25
2022-11-14T04:33:05.572Z,-1.25
2022-11-14T04:35:53.698Z,-1.29
2022-11-14T04:38:40.873Z,-1.30
2022-11-14T04:41:27.804Z,-1.30
2022-11-14T04:44:14.934Z,-1.34
2022-11-14T04:47:01.674Z,-1.43
2022-11-14T04:49:48.859Z,-1.38
2022-11-14T04:52:37.339Z,-1.43
2022-11-14T04:55:24.015Z,-1.42
2022-11-14T04:58:11.433Z,-1.52
2022-11-14T05:00:59.141Z,-1.53
2022-11-14T05:03:46.168Z,-1.72
2022-11-14T05:06:33.466Z,-1.73
2022-11-14T05:09:22.071Z,-1.74
2022-11-14T05:12:09.062Z,-1.85
2022-11-14T05:14:56.203Z,-1.84
2022-11-14T05:17:42.825Z,-1.96
2022-11-14T05:20:29.883Z,-1.93
2022-11-14T05:23:21.287Z,-1.97
2022-11-14T05:26:10.613Z,-2.06
2022-11-14T05:28:57.634Z,-2.04
2022-11-14T05:31:44.879Z,-2.06
2022-11-14T05:34:31.462Z,-2.18
2022-11-14T05:37:20.013Z,-2.13
2022-11-14T05:40:07.865Z,-2.12
2022-11-14T05:42:57.763Z,-2.20
2022-11-14T05:45:45.073Z,-2.25
2022-11-14T05:48:32.569Z,-2.27
2022-11-14T05:51:21.319Z,-2.37
2022-11-14T05:54:08.788Z,-2.41
2022-11-14T05:56:55.618Z,-2.44
2022-11-14T05:59:44.140Z,-2.49
2022-11-14T06:02:34.547Z,-2.60
2022-11-14T06:05:21.601Z,-2.58
2022-11-14T06:08:08.978Z,-2.64
2022-11-14T06:10:55.518Z,-2.67
2022-11-14T06:13:43.427Z,-2.65
2022-11-14T06:16:31.839Z,-2.90
2022-11-14T06:19:18.883Z,-2.65
2022-11-14T06:22:05.526Z,-2.83
2022-11-14T06:24:52.145Z,-2.74
2022-11-14T06:27:41.470Z,-2.67
2022-11-14T06:30:31.079Z,-2.67
2022-11-14T06:33:19.167Z,-2.63
2022-11-14T06:36:07.882Z,-2.69
2022-11-14T06:38:54.954Z,-2.73
2022-11-14T06:41:41.883Z,-2.72
2022-11-14T06:44:31.291Z,-2.71
2022-11-14T06:47:18.199Z,-2.68
2022-11-14T06:50:08.012Z,-2.64
2022-11-14T06:52:54.873Z,-2.66
2022-11-14T06:55:41.902Z,-2.66
2022-11-14T06:58:31.164Z,-2.61
2022-11-14T07:01:19.463Z,-2.60
2022-11-14T07:04:06.649Z,-2.62
2022-11-14T07:06:55.225Z,-2.63
2022-11-14T07:09:42.373Z,-2.52
2022-11-14T07:12:29.685Z,-2.51
2022-11-14T07:15:19.445Z,-2.50
2022-11-14T07:18:07.806Z,-2.61
2022-11-14T07:20:59.031Z,-2.37
2022-11-14T07:23:47.178Z,-2.38
2022-11-14T07:26:34.254Z,-2.38
2022-11-14T07:29:21.160Z,-2.34
2022-11-14T07:32:08.020Z,-2.32
2022-11-14T07:35:00.771Z,-2.28
2022-11-14T07:37:49.242Z,-2.21
2022-11-14T07:40:37.412Z,-2.18
2022-11-14T07:43:24.423Z,-2.17
2022-11-14T07:46:13.355Z,-2.23
2022-11-14T07:49:00.374Z,-2.16
2022-11-14T07:51:47.017Z,-2.17
2022-11-14T07:54:33.762Z,-2.10
2022-11-14T07:57:22.232Z,-1.99
2022-11-14T08:00:10.934Z,-2.00
2022-11-14T08:02:57.997Z,-1.98
2022-11-14T08:05:45.007Z,-1.95
2022-11-14T08:08:32.513Z,-2.00
2022-11-14T08:11:40.903Z,-2.09
2022-11-14T08:14:29.605Z,-1.99
2022-11-14T08:17:16.568Z,-2.01
2022-11-14T08:20:03.590Z,-1.99
2022-11-14T08:22:50.688Z,-1.90
2022-11-14T08:25:37.695Z,-1.86
2022-11-14T08:28:24.695Z,-1.76
2022-11-14T08:31:13.753Z,-1.89
2022-11-14T08:34:00.950Z,-1.77
2022-11-14T08:36:48.105Z,-1.77
2022-11-14T08:39:35.175Z,-1.77
2022-11-14T08:42:22.108Z,-1.68
2022-11-14T08:45:09.717Z,-1.73
2022-11-14T08:47:57.679Z,-1.82
2022-11-14T08:50:44.736Z,-1.64
2022-11-14T08:53:32.069Z,-1.58
2022-11-14T08:56:18.957Z,-1.65
2022-11-14T08:59:05.712Z,-1.55
2022-11-14T09:01:52.679Z,-1.57
2022-11-14T09:04:41.790Z,-1.53
2022-11-14T09:07:29.048Z,-1.58
2022-11-14T09:10:16.256Z,-1.51
2022-11-14T09:13:03.739Z,-1.66
2022-11-14T09:15:50.514Z,-1.47
2022-11-14T09:18:37.548Z,-1.42
2022-11-14T09:21:26.155Z,-1.38
2022-11-14T09:24:12.961Z,-1.53
2022-11-14T09:26:59.901Z,-1.38
2022-11-14T09:29:47.124Z,-1.39
2022-11-14T09:32:34.367Z,-1.34
2022-11-14T09:35:21.143Z,-1.38
2022-11-14T09:38:12.189Z,-1.44
2022-11-14T09:41:06.610Z,-1.36
2022-11-14T09:44:26.394Z,-1.31
2022-11-14T09:47:20.441Z,-1.35
2022-11-14T09:50:12.751Z,-1.17
2022-11-14T09:53:02.474Z,-1.19
2022-11-14T09:55:51.010Z,-1.28
2022-11-14T09:58:38.149Z,-1.19
2022-11-14T10:01:34.294Z,-1.22
2022-11-14T10:04:25.842Z,-1.14
2022-11-14T10:07:24.124Z,-1.17
2022-11-14T10:10:17.051Z,-1.10
2022-11-14T10:13:17.624Z,-1.16
2022-11-14T10:16:09.180Z,-1.18
2022-11-14T10:19:05.712Z,-1.17
2022-11-14T10:22:03.735Z,-1.17
2022-11-14T10:25:00.391Z,-1.07
2022-11-14T10:28:04.841Z,-1.28
2022-11-14T10:30:57.344Z,-1.06
2022-11-14T10:33:52.494Z,-0.95
2022-11-14T10:36:51.633Z,-1.05
2022-11-14T10:39:41.007Z,-146.64
2022-11-14T10:42:32.270Z,-146.64
2022-11-14T10:45:25.237Z,-146.64
2022-11-14T10:48:15.988Z,-146.64
2022-11-14T10:51:05.030Z,-146.64
2022-11-14T10:53:55.598Z,-146.64
2022-11-14T10:56:48.804Z,-146.64
2022-11-14T10:59:36.550Z,-146.64
2022-11-14T11:02:23.537Z,-146.64
2022-11-14T11:05:18.005Z,-146.64
2022-11-14T11:08:43.238Z,-146.64
2022-11-14T11:12:55.309Z,-0.68
2022-11-14T11:15:44.331Z,-0.69
2022-11-14T11:18:32.990Z,-0.72
2022-11-14T11:21:22.182Z,-0.94
2022-11-14T11:24:10.593Z,-0.73
2022-11-14T11:27:15.396Z,-0.78
2022-11-14T11:30:20.111Z,-0.80
2022-11-14T11:33:18.356Z,-0.80
2022-11-14T11:36:07.504Z,-1.03
2022-11-14T11:38:54.545Z,-0.84
2022-11-14T11:42:07.749Z,-0.76
2022-11-14T11:44:52.085Z,-0.75
2022-11-14T11:47:42.205Z,-0.71
2022-11-14T11:50:29.157Z,-0.71
2022-11-14T11:53:22.021Z,-0.69
2022-11-14T11:56:13.125Z,-0.67
2022-11-14T11:59:07.142Z,-0.67
2022-11-14T12:01:54.411Z,-0.64
2022-11-14T12:04:42.532Z,-0.63
2022-11-14T12:07:38.592Z,-0.67
2022-11-14T12:10:28.082Z,-0.69
2022-11-14T12:13:59.539Z,-0.79
2022-11-14T12:17:12.267Z,-0.70
2022-11-14T12:20:08.485Z,-0.71
2022-11-14T12:23:13.153Z,-0.68
2022-11-14T12:26:08.114Z,-0.68
2022-11-14T12:29:21.258Z,-0.68
2022-11-14T12:32:16.092Z,-0.69
2022-11-14T12:35:08.277Z,-0.80
2022-11-14T12:37:56.681Z,-0.73
2022-11-14T12:40:51.064Z,-0.85
2022-11-14T12:43:39.963Z,-0.80
2022-11-14T12:46:27.281Z,-1.25
2022-11-14T12:49:38.894Z,-0.89
2022-11-14T12:52:48.737Z,-0.84
2022-11-14T12:56:07.092Z,-0.86
2022-11-14T12:59:11.278Z,-0.92
2022-11-14T13:02:22.230Z,-0.88
2022-11-14T13:05:38.836Z,-0.95
2022-11-14T13:09:04.942Z,-0.94
2022-11-14T13:12:09.527Z,-0.96
2022-11-14T13:15:15.745Z,-0.98
2022-11-14T13:18:32.822Z,-1.03
2022-11-14T13:21:44.980Z,-1.06
2022-11-14T13:25:05.780Z,-1.12
2022-11-14T13:28:21.895Z,-1.13
2022-11-14T13:31:08.009Z,-1.13
2022-11-14T13:33:59.107Z,-1.17
2022-11-14T13:36:51.027Z,-1.22
2022-11-14T13:39:43.866Z,-1.29
2022-11-14T13:42:42.894Z,-1.33
2022-11-14T13:45:46.713Z,-1.31
2022-11-14T13:49:02.753Z,-1.38
2022-11-14T13:51:53.581Z,-1.39
2022-11-14T13:54:47.184Z,-1.42
2022-11-14T13:57:43.112Z,-1.47
2022-11-14T14:00:31.899Z,-1.49
2022-11-14T14:03:27.142Z,-1.46
2022-11-14T14:06:26.541Z,-1.51
2022-11-14T14:09:19.556Z,-1.49
2022-11-14T14:12:19.492Z,-1.52
2022-11-14T14:15:15.747Z,-1.52
2022-11-14T14:18:09.576Z,-1.64
2022-11-14T14:21:01.813Z,-1.56
2022-11-14T14:23:53.503Z,-1.58
2022-11-14T14:26:55.750Z,-1.60
2022-11-14T14:29:47.231Z,-1.65
2022-11-14T14:32:34.473Z,-1.66
2022-11-14T14:35:23.885Z,-1.86
2022-11-14T14:38:24.196Z,-1.65
2022-11-14T14:41:11.527Z,-1.74
2022-11-14T14:43:58.239Z,-1.68
2022-11-14T14:46:45.448Z,-1.66
2022-11-14T14:49:36.635Z,-1.71
2022-11-14T14:52:27.571Z,-1.73
2022-11-14T14:55:27.029Z,-1.51
2022-11-14T14:58:22.225Z,-1.40
2022-11-14T15:01:13.722Z,-1.39
2022-11-14T15:04:04.471Z,-1.43
2022-11-14T15:06:53.616Z,-1.30
2022-11-14T15:09:40.419Z,-1.28
2022-11-14T15:12:30.904Z,-1.27
2022-11-14T15:15:18.501Z,-1.41
2022-11-14T15:18:08.358Z,-1.22
2022-11-14T15:21:12.507Z,-1.27
2022-11-14T15:24:01.130Z,-1.34
2022-11-14T15:26:49.901Z,-1.23
2022-11-14T15:29:46.832Z,-1.17
2022-11-14T15:32:34.921Z,-1.17
2022-11-14T15:35:32.959Z,-1.24
2022-11-14T15:38:43.127Z,-1.09
2022-11-14T15:41:32.045Z,-1.06
2022-11-14T15:44:31.839Z,-1.09
2022-11-14T15:47:25.286Z,-1.02
2022-11-14T15:50:28.490Z,-1.02
2022-11-14T15:53:23.837Z,-1.03
2022-11-14T15:56:13.191Z,-1.03
2022-11-14T15:59:00.142Z,-1.02
2022-11-14T16:01:48.292Z,-0.99
2022-11-14T16:04:40.633Z,-1.04
2022-11-14T16:07:30.102Z,-1.02
2022-11-14T16:10:18.188Z,-1.01
2022-11-14T16:13:05.344Z,-0.99
2022-11-14T16:15:52.321Z,-0.93
2022-11-14T16:18:39.652Z,-0.91
2022-11-14T16:21:28.005Z,-0.95
2022-11-14T16:24:17.753Z,-0.90
2022-11-14T16:27:05.498Z,-0.86
2022-11-14T16:29:52.869Z,-0.88
2022-11-14T16:32:40.766Z,-0.87
2022-11-14T16:35:28.612Z,-0.98
2022-11-14T16:38:17.388Z,-0.83
2022-11-14T16:41:07.943Z,-0.80
2022-11-14T16:43:55.575Z,-0.88
2022-11-14T16:46:42.770Z,-0.90
2022-11-14T16:49:30.044Z,-0.88
2022-11-14T16:52:17.300Z,-0.92
2022-11-14T16:55:05.715Z,-0.96
2022-11-14T16:57:52.637Z,-1.06
2022-11-14T17:00:39.841Z,-0.89
2022-11-14T17:03:26.858Z,-0.98
2022-11-14T17:06:13.986Z,-0.99
2022-11-14T17:09:01.753Z,-0.94
2022-11-14T17:11:50.907Z,-0.93
2022-11-14T17:14:39.509Z,-0.93
2022-11-14T17:17:26.486Z,-1.03
2022-11-14T17:20:13.724Z,-0.91
2022-11-14T17:23:00.905Z,-0.88
2022-11-14T17:25:47.799Z,-0.89
2022-11-14T17:28:38.550Z,-0.95
2022-11-14T17:31:26.529Z,-0.86
2022-11-14T17:34:13.527Z,-0.83
2022-11-14T17:37:00.795Z,-0.79
2022-11-14T17:39:47.721Z,-0.84
2022-11-14T17:42:34.846Z,-0.81
2022-11-14T17:45:23.150Z,-0.82
2022-11-14T17:48:10.243Z,-0.84
2022-11-14T17:50:57.678Z,-0.90
2022-11-14T17:53:45.222Z,-0.87
2022-11-14T17:56:32.318Z,-0.86
2022-11-14T17:59:20.610Z,-0.92
2022-11-14T18:02:14.676Z,-0.87
2022-11-14T18:05:01.281Z,-0.87
2022-11-14T18:07:48.218Z,-0.81
2022-11-14T18:10:41.876Z,-1.00
2022-11-14T18:13:32.472Z,-0.95
2022-11-14T18:16:21.353Z,-0.80
2022-11-14T18:19:15.641Z,-0.80
2022-11-14T18:22:02.510Z,-0.83
2022-11-14T18:24:50.426Z,-0.90
2022-11-14T18:27:39.527Z,-0.98
2022-11-14T18:30:41.077Z,-0.98
2022-11-14T18:33:30.874Z,-1.02
2022-11-14T18:36:22.587Z,-0.96
2022-11-14T18:39:09.688Z,-1.04
2022-11-14T18:41:56.713Z,-1.01
2022-11-14T18:44:43.859Z,-1.20
2022-11-14T18:47:33.227Z,-1.22
2022-11-14T18:50:20.210Z,-1.20
2022-11-14T18:53:08.622Z,-1.11
2022-11-14T18:55:55.517Z,-1.31
2022-11-14T18:58:43.351Z,-1.34
2022-11-14T19:01:32.168Z,-1.42
2022-11-14T19:04:19.870Z,-1.27
2022-11-14T19:07:07.024Z,-1.44
2022-11-14T19:09:55.266Z,-1.28
2022-11-14T19:12:42.857Z,-1.32
2022-11-14T19:15:30.033Z,-1.32
2022-11-14T19:18:17.209Z,-1.55
2022-11-14T19:21:06.236Z,-1.45
2022-11-14T19:23:53.932Z,-1.50
2022-11-14T19:26:42.615Z,-1.49
2022-11-14T19:29:29.582Z,-1.48
2022-11-14T19:32:16.593Z,-1.47
2022-11-14T19:35:03.270Z,-1.47
2022-11-14T19:37:50.346Z,-1.48
2022-11-14T19:40:38.554Z,-1.39
2022-11-14T19:43:28.216Z,-1.37
2022-11-14T19:46:17.084Z,-1.57
2022-11-14T19:49:05.062Z,-1.41
2022-11-14T19:51:51.788Z,-1.44
2022-11-14T19:54:39.327Z,-1.42
2022-11-14T19:57:26.041Z,-1.47
2022-11-14T20:00:15.292Z,-1.31
2022-11-14T20:03:02.235Z,-1.36
2022-11-14T20:05:49.685Z,-1.40
2022-11-14T20:08:37.554Z,-1.43
2022-11-14T20:11:25.396Z,-1.41
2022-11-14T20:14:12.328Z,-1.56
2022-11-14T20:17:01.373Z,-1.50
2022-11-14T20:19:48.701Z,-1.49
2022-11-14T20:22:35.786Z,-1.56
2022-11-14T20:25:22.680Z,-1.48
2022-11-14T20:28:09.672Z,-1.61
2022-11-14T20:30:56.656Z,-1.58
2022-11-14T20:33:51.835Z,-1.50
2022-11-14T20:37:08.872Z,-1.50
2022-11-14T20:39:45.369Z,-1.49
2022-11-14T20:42:32.749Z,-1.57
2022-11-14T20:45:19.904Z,-1.57
2022-11-14T20:48:07.578Z,-1.56
2022-11-14T20:51:03.507Z,-1.63
2022-11-14T20:53:51.206Z,-1.60
2022-11-14T20:56:38.376Z,-1.51
2022-11-14T20:59:25.625Z,-1.41
2022-11-14T21:02:13.484Z,-1.43
2022-11-14T21:05:00.527Z,-1.38
2022-11-14T21:07:49.076Z,-1.47
2022-11-14T21:10:47.156Z,-1.44
2022-11-14T21:13:53.287Z,-1.34
2022-11-14T21:16:41.116Z,-1.25
2022-11-14T21:19:29.314Z,-1.21
2022-11-14T21:22:16.509Z,-1.24
2022-11-14T21:25:04.605Z,-1.32
2022-11-14T21:27:52.008Z,-1.29
2022-11-14T21:30:38.786Z,-1.56
2022-11-14T21:33:26.733Z,-1.27
2022-11-14T21:36:44.345Z,-1.23
2022-11-14T21:39:22.139Z,-1.46
2022-11-14T21:42:14.263Z,-1.25
2022-11-14T21:45:05.160Z,-1.23
2022-11-14T21:47:52.248Z,-1.21
2022-11-14T21:50:39.523Z,-1.31
2022-11-14T21:53:26.364Z,-1.28
2022-11-14T21:56:15.052Z,-1.32
2022-11-14T21:59:15.784Z,-1.34
2022-11-14T22:02:21.576Z,-1.33
2022-11-14T22:05:08.935Z,-1.38
2022-11-14T22:07:55.847Z,-1.48
2022-11-14T22:10:43.146Z,-1.55
2022-11-14T22:13:31.743Z,-1.66
2022-11-14T22:16:21.060Z,-1.67
2022-11-14T22:19:08.426Z,-1.70
2022-11-14T22:21:55.610Z,-1.66
2022-11-14T22:24:42.414Z,-1.77
2022-11-14T22:27:29.488Z,-1.54
2022-11-14T22:30:16.907Z,-1.46
2022-11-14T22:33:05.610Z,-1.40
2022-11-14T22:35:52.327Z,-1.47
2022-11-14T22:38:39.539Z,-1.35
2022-11-14T22:41:32.246Z,-1.29
2022-11-14T22:44:19.937Z,-1.23
2022-11-14T22:47:07.040Z,-1.24
2022-11-14T22:49:55.504Z,-1.20
2022-11-14T22:52:42.573Z,-1.24
2022-11-14T22:55:29.694Z,-1.43
2022-11-14T22:58:16.844Z,-1.41
2022-11-14T23:01:10.860Z,-1.48
2022-11-14T23:03:59.485Z,-1.56
2022-11-14T23:06:48.037Z,-1.40
2022-11-14T23:09:34.944Z,-1.52
2022-11-14T23:12:22.192Z,-1.38
2022-11-14T23:15:09.446Z,-1.52
2022-11-14T23:17:56.654Z,-1.53
2022-11-14T23:20:43.790Z,-1.65
2022-11-14T23:23:32.103Z,-1.62
2022-11-14T23:26:19.717Z,-1.76
2022-11-14T23:29:06.664Z,-1.72
2022-11-14T23:31:53.799Z,-1.77
2022-11-14T23:34:40.625Z,-1.47
2022-11-14T23:37:27.497Z,-1.46
2022-11-14T23:40:15.709Z,-1.55
2022-11-14T23:43:02.400Z,-1.60
2022-11-14T23:45:49.400Z,-1.56
2022-11-14T23:48:36.113Z,-1.57
2022-11-14T23:51:22.808Z,-1.54
2022-11-14T23:54:09.767Z,-1.48
2022-11-14T23:57:01.429Z,-1.48
2022-11-14T23:59:50.865Z,-1.45
